ISM weather

Kissimmee Gateway Airport
Orlando, Florida, United States

Public forecast

Using degrees Fahrenheit for public forecast. Weather courtesy of forecast.io.

Current aviation weather report (METAR) for Kissimmee Gateway Airport

Retrieved 2019/11/22 00:56 UTC (21 minutes ago):

KISM 220056Z 05004KT 10SM CLR 19/14 A3019 RMK AO2 SLP225 T01940139

Aviation forecast (TAF) for Kissimmee Gateway Airport

Retrieved 2019-11-22 00:48 UTC (29 minutes ago):

TAF KISM 212345Z 2200/2224 06006KT P6SM SCT250 FM220300 VRB03KT P6SM SCT250 FM221500 16006KT P6SM SCT040 SCT250